sensor_id;sensor_type;location;lat;lon;timestamp;P1;durP1;ratioP1;P2;durP2;ratioP2
80908;SDS011;70358;56.958;24.126;2023-06-14T00:00:50;5.63;;;2.90;;
80908;SDS011;70358;56.958;24.126;2023-06-14T00:03:18;3.97;;;2.53;;
80908;SDS011;70358;56.958;24.126;2023-06-14T00:05:47;4.82;;;2.38;;
80908;SDS011;70358;56.958;24.126;2023-06-14T00:08:13;3.97;;;2.80;;
80908;SDS011;70358;56.958;24.126;2023-06-14T00:10:40;4.47;;;2.30;;
80908;SDS011;70358;56.958;24.126;2023-06-14T00:13:09;3.75;;;2.60;;
80908;SDS011;70358;56.958;24.126;2023-06-14T00:15:34;3.03;;;2.05;;
80908;SDS011;70358;56.958;24.126;2023-06-14T00:18:00;3.47;;;2.38;;
80908;SDS011;70358;56.958;24.126;2023-06-14T00:20:28;4.75;;;2.72;;
80908;SDS011;70358;56.958;24.126;2023-06-14T00:22:54;4.97;;;2.50;;
80908;SDS011;70358;56.958;24.126;2023-06-14T00:25:21;5.25;;;2.78;;
80908;SDS011;70358;56.958;24.126;2023-06-14T00:27:48;4.72;;;2.90;;
80908;SDS011;70358;56.958;24.126;2023-06-14T00:30:13;3.67;;;2.45;;
80908;SDS011;70358;56.958;24.126;2023-06-14T00:32:39;4.05;;;2.70;;
80908;SDS011;70358;56.958;24.126;2023-06-14T00:35:05;3.72;;;2.67;;
80908;SDS011;70358;56.958;24.126;2023-06-14T00:37:30;2.88;;;2.30;;
80908;SDS011;70358;56.958;24.126;2023-06-14T00:39:56;4.53;;;2.95;;
80908;SDS011;70358;56.958;24.126;2023-06-14T00:42:25;4.35;;;2.65;;
80908;SDS011;70358;56.958;24.126;2023-06-14T00:44:51;3.85;;;2.70;;
80908;SDS011;70358;56.958;24.126;2023-06-14T00:47:17;4.85;;;2.88;;
80908;SDS011;70358;56.958;24.126;2023-06-14T00:49:42;4.05;;;2.85;;
80908;SDS011;70358;56.958;24.126;2023-06-14T00:52:09;3.33;;;2.65;;
80908;SDS011;70358;56.958;24.126;2023-06-14T00:54:38;3.97;;;2.97;;
80908;SDS011;70358;56.958;24.126;2023-06-14T00:57:04;4.47;;;2.65;;
80908;SDS011;70358;56.958;24.126;2023-06-14T00:59:31;5.85;;;2.65;;
80908;SDS011;70358;56.958;24.126;2023-06-14T01:01:56;4.53;;;2.33;;
80908;SDS011;70358;56.958;24.126;2023-06-14T01:04:22;3.65;;;2.78;;
80908;SDS011;70358;56.958;24.126;2023-06-14T01:15:30;3.60;;;2.60;;
80908;SDS011;70358;56.958;24.126;2023-06-14T01:17:56;5.40;;;2.58;;
80908;SDS011;70358;56.958;24.126;2023-06-14T01:20:28;4.80;;;2.55;;
80908;SDS011;70358;56.958;24.126;2023-06-14T01:22:58;4.50;;;2.78;;
80908;SDS011;70358;56.958;24.126;2023-06-14T01:25:24;4.07;;;3.05;;
80908;SDS011;70358;56.958;24.126;2023-06-14T01:27:52;4.50;;;2.83;;
80908;SDS011;70358;56.958;24.126;2023-06-14T01:30:20;3.97;;;2.90;;
80908;SDS011;70358;56.958;24.126;2023-06-14T01:32:46;3.35;;;2.60;;
80908;SDS011;70358;56.958;24.126;2023-06-14T01:35:12;4.32;;;2.38;;
80908;SDS011;70358;56.958;24.126;2023-06-14T01:37:38;4.43;;;2.72;;
80908;SDS011;70358;56.958;24.126;2023-06-14T01:40:05;3.42;;;2.80;;
80908;SDS011;70358;56.958;24.126;2023-06-14T01:42:35;3.50;;;2.70;;
80908;SDS011;70358;56.958;24.126;2023-06-14T01:45:02;4.40;;;2.65;;
80908;SDS011;70358;56.958;24.126;2023-06-14T01:47:31;5.03;;;2.60;;
80908;SDS011;70358;56.958;24.126;2023-06-14T01:49:56;3.92;;;2.65;;
80908;SDS011;70358;56.958;24.126;2023-06-14T01:52:22;4.15;;;2.88;;
80908;SDS011;70358;56.958;24.126;2023-06-14T01:54:49;4.40;;;3.05;;
80908;SDS011;70358;56.958;24.126;2023-06-14T01:57:17;3.42;;;2.42;;
80908;SDS011;70358;56.958;24.126;2023-06-14T01:59:42;3.97;;;3.00;;
80908;SDS011;70358;56.958;24.126;2023-06-14T02:02:13;4.38;;;2.70;;
80908;SDS011;70358;56.958;24.126;2023-06-14T02:04:39;4.07;;;2.92;;
80908;SDS011;70358;56.958;24.126;2023-06-14T02:07:04;3.90;;;2.75;;
80908;SDS011;70358;56.958;24.126;2023-06-14T02:09:30;4.68;;;2.88;;
80908;SDS011;70358;56.958;24.126;2023-06-14T02:11:55;4.60;;;2.80;;
80908;SDS011;70358;56.958;24.126;2023-06-14T02:14:20;4.15;;;2.60;;
80908;SDS011;70358;56.958;24.126;2023-06-14T02:16:46;5.72;;;2.85;;
80908;SDS011;70358;56.958;24.126;2023-06-14T02:19:17;3.80;;;3.00;;
80908;SDS011;70358;56.958;24.126;2023-06-14T02:21:44;4.40;;;3.03;;
80908;SDS011;70358;56.958;24.126;2023-06-14T02:24:09;3.33;;;2.53;;
80908;SDS011;70358;56.958;24.126;2023-06-14T02:26:35;2.97;;;2.45;;
80908;SDS011;70358;56.958;24.126;2023-06-14T02:29:03;3.67;;;2.80;;
80908;SDS011;70358;56.958;24.126;2023-06-14T02:31:29;2.97;;;2.33;;
80908;SDS011;70358;56.958;24.126;2023-06-14T02:33:54;5.75;;;2.75;;
80908;SDS011;70358;56.958;24.126;2023-06-14T02:36:20;4.25;;;2.70;;
80908;SDS011;70358;56.958;24.126;2023-06-14T02:38:45;3.20;;;2.38;;
80908;SDS011;70358;56.958;24.126;2023-06-14T02:41:11;3.90;;;2.63;;
80908;SDS011;70358;56.958;24.126;2023-06-14T02:43:37;7.30;;;2.80;;
80908;SDS011;70358;56.958;24.126;2023-06-14T02:46:03;3.85;;;2.65;;
80908;SDS011;70358;56.958;24.126;2023-06-14T02:48:29;3.78;;;2.70;;
80908;SDS011;70358;56.958;24.126;2023-06-14T02:50:55;5.38;;;2.72;;
80908;SDS011;70358;56.958;24.126;2023-06-14T02:53:21;5.00;;;3.10;;
80908;SDS011;70358;56.958;24.126;2023-06-14T02:55:46;4.07;;;2.90;;
80908;SDS011;70358;56.958;24.126;2023-06-14T02:58:13;4.72;;;2.85;;
80908;SDS011;70358;56.958;24.126;2023-06-14T03:00:39;3.10;;;2.40;;
80908;SDS011;70358;56.958;24.126;2023-06-14T03:03:06;4.50;;;2.78;;
80908;SDS011;70358;56.958;24.126;2023-06-14T03:05:38;3.67;;;2.80;;
80908;SDS011;70358;56.958;24.126;2023-06-14T03:08:18;4.50;;;2.80;;
80908;SDS011;70358;56.958;24.126;2023-06-14T03:10:47;3.58;;;2.70;;
80908;SDS011;70358;56.958;24.126;2023-06-14T03:13:13;4.30;;;2.95;;
80908;SDS011;70358;56.958;24.126;2023-06-14T03:15:39;3.55;;;2.67;;
80908;SDS011;70358;56.958;24.126;2023-06-14T03:20:33;5.50;;;3.05;;
80908;SDS011;70358;56.958;24.126;2023-06-14T03:23:00;4.57;;;3.00;;
80908;SDS011;70358;56.958;24.126;2023-06-14T03:25:26;4.00;;;2.42;;
80908;SDS011;70358;56.958;24.126;2023-06-14T03:27:54;3.47;;;2.67;;
80908;SDS011;70358;56.958;24.126;2023-06-14T03:30:22;4.10;;;2.47;;
80908;SDS011;70358;56.958;24.126;2023-06-14T03:32:48;3.40;;;2.38;;
80908;SDS011;70358;56.958;24.126;2023-06-14T03:35:13;5.22;;;2.80;;
80908;SDS011;70358;56.958;24.126;2023-06-14T03:37:45;5.07;;;2.60;;
80908;SDS011;70358;56.958;24.126;2023-06-14T03:40:12;3.75;;;2.53;;
80908;SDS011;70358;56.958;24.126;2023-06-14T03:42:39;4.15;;;2.90;;
80908;SDS011;70358;56.958;24.126;2023-06-14T03:45:05;3.95;;;2.58;;
80908;SDS011;70358;56.958;24.126;2023-06-14T03:47:32;3.33;;;2.40;;
80908;SDS011;70358;56.958;24.126;2023-06-14T03:49:57;4.05;;;3.00;;
80908;SDS011;70358;56.958;24.126;2023-06-14T03:52:23;4.03;;;2.50;;
80908;SDS011;70358;56.958;24.126;2023-06-14T03:54:48;3.80;;;2.50;;
80908;SDS011;70358;56.958;24.126;2023-06-14T03:57:14;4.15;;;2.45;;
80908;SDS011;70358;56.958;24.126;2023-06-14T03:59:39;5.03;;;2.60;;
80908;SDS011;70358;56.958;24.126;2023-06-14T04:02:06;4.10;;;2.90;;
80908;SDS011;70358;56.958;24.126;2023-06-14T04:04:32;5.03;;;2.70;;
80908;SDS011;70358;56.958;24.126;2023-06-14T04:06:57;3.50;;;2.40;;
80908;SDS011;70358;56.958;24.126;2023-06-14T04:09:25;5.20;;;2.45;;
80908;SDS011;70358;56.958;24.126;2023-06-14T04:11:54;4.22;;;2.78;;
80908;SDS011;70358;56.958;24.126;2023-06-14T04:14:20;3.70;;;2.85;;
80908;SDS011;70358;56.958;24.126;2023-06-14T04:16:46;3.15;;;2.60;;
80908;SDS011;70358;56.958;24.126;2023-06-14T04:19:12;4.85;;;2.80;;
80908;SDS011;70358;56.958;24.126;2023-06-14T04:21:38;3.78;;;2.58;;
80908;SDS011;70358;56.958;24.126;2023-06-14T04:24:04;4.93;;;2.45;;
80908;SDS011;70358;56.958;24.126;2023-06-14T04:26:29;3.83;;;2.47;;
80908;SDS011;70358;56.958;24.126;2023-06-14T04:28:58;3.47;;;2.28;;
80908;SDS011;70358;56.958;24.126;2023-06-14T04:31:27;3.92;;;2.50;;
80908;SDS011;70358;56.958;24.126;2023-06-14T04:33:58;3.45;;;2.40;;
80908;SDS011;70358;56.958;24.126;2023-06-14T04:36:24;3.67;;;2.78;;
80908;SDS011;70358;56.958;24.126;2023-06-14T04:38:50;3.80;;;2.60;;
80908;SDS011;70358;56.958;24.126;2023-06-14T04:41:19;4.88;;;2.60;;
80908;SDS011;70358;56.958;24.126;2023-06-14T04:43:47;4.15;;;2.55;;
80908;SDS011;70358;56.958;24.126;2023-06-14T04:46:14;5.07;;;2.90;;
80908;SDS011;70358;56.958;24.126;2023-06-14T04:48:40;4.63;;;2.67;;
80908;SDS011;70358;56.958;24.126;2023-06-14T04:51:08;6.32;;;2.55;;
80908;SDS011;70358;56.958;24.126;2023-06-14T04:53:34;4.68;;;3.00;;
80908;SDS011;70358;56.958;24.126;2023-06-14T04:55:59;3.85;;;2.75;;
80908;SDS011;70358;56.958;24.126;2023-06-14T04:58:27;4.85;;;2.53;;
80908;SDS011;70358;56.958;24.126;2023-06-14T05:00:53;3.92;;;2.67;;
80908;SDS011;70358;56.958;24.126;2023-06-14T05:03:24;4.70;;;2.50;;
80908;SDS011;70358;56.958;24.126;2023-06-14T05:05:51;5.88;;;2.88;;
80908;SDS011;70358;56.958;24.126;2023-06-14T05:08:18;4.20;;;2.83;;
80908;SDS011;70358;56.958;24.126;2023-06-14T05:10:44;7.47;;;2.75;;
80908;SDS011;70358;56.958;24.126;2023-06-14T05:13:09;7.07;;;2.83;;
80908;SDS011;70358;56.958;24.126;2023-06-14T05:15:35;10.27;;;3.28;;
80908;SDS011;70358;56.958;24.126;2023-06-14T05:18:03;13.23;;;3.33;;
80908;SDS011;70358;56.958;24.126;2023-06-14T05:20:29;9.73;;;3.35;;
80908;SDS011;70358;56.958;24.126;2023-06-14T05:22:55;6.88;;;3.10;;
80908;SDS011;70358;56.958;24.126;2023-06-14T05:25:21;7.03;;;3.47;;
80908;SDS011;70358;56.958;24.126;2023-06-14T05:27:47;8.10;;;3.05;;
80908;SDS011;70358;56.958;24.126;2023-06-14T05:30:14;12.02;;;3.30;;
80908;SDS011;70358;56.958;24.126;2023-06-14T05:32:40;13.15;;;3.58;;
80908;SDS011;70358;56.958;24.126;2023-06-14T05:35:06;11.15;;;3.30;;
80908;SDS011;70358;56.958;24.126;2023-06-14T05:37:32;11.93;;;3.22;;
80908;SDS011;70358;56.958;24.126;2023-06-14T05:39:57;9.70;;;3.10;;
80908;SDS011;70358;56.958;24.126;2023-06-14T05:42:23;5.68;;;3.20;;
80908;SDS011;70358;56.958;24.126;2023-06-14T05:44:48;11.55;;;3.50;;
80908;SDS011;70358;56.958;24.126;2023-06-14T05:47:16;9.23;;;3.13;;
80908;SDS011;70358;56.958;24.126;2023-06-14T05:49:59;12.60;;;3.72;;
80908;SDS011;70358;56.958;24.126;2023-06-14T05:52:25;12.13;;;3.17;;
80908;SDS011;70358;56.958;24.126;2023-06-14T05:54:51;16.13;;;3.22;;
80908;SDS011;70358;56.958;24.126;2023-06-14T05:57:17;7.88;;;3.08;;
80908;SDS011;70358;56.958;24.126;2023-06-14T05:59:43;6.63;;;3.05;;
80908;SDS011;70358;56.958;24.126;2023-06-14T06:02:09;5.88;;;3.17;;
80908;SDS011;70358;56.958;24.126;2023-06-14T06:04:34;8.63;;;3.30;;
80908;SDS011;70358;56.958;24.126;2023-06-14T06:07:01;9.43;;;3.30;;
80908;SDS011;70358;56.958;24.126;2023-06-14T06:09:26;6.97;;;2.83;;
80908;SDS011;70358;56.958;24.126;2023-06-14T06:11:52;10.00;;;3.22;;
80908;SDS011;70358;56.958;24.126;2023-06-14T06:14:17;15.70;;;3.53;;
80908;SDS011;70358;56.958;24.126;2023-06-14T06:16:43;12.93;;;3.80;;
80908;SDS011;70358;56.958;24.126;2023-06-14T06:19:10;5.78;;;3.05;;
80908;SDS011;70358;56.958;24.126;2023-06-14T06:24:01;7.03;;;2.90;;
80908;SDS011;70358;56.958;24.126;2023-06-14T06:26:28;10.00;;;3.08;;
80908;SDS011;70358;56.958;24.126;2023-06-14T06:28:54;10.05;;;3.35;;
80908;SDS011;70358;56.958;24.126;2023-06-14T06:31:19;8.20;;;3.35;;
80908;SDS011;70358;56.958;24.126;2023-06-14T06:33:45;5.13;;;2.93;;
80908;SDS011;70358;56.958;24.126;2023-06-14T06:36:10;10.68;;;3.00;;
80908;SDS011;70358;56.958;24.126;2023-06-14T06:38:36;8.18;;;3.00;;
80908;SDS011;70358;56.958;24.126;2023-06-14T06:41:01;8.18;;;3.05;;
80908;SDS011;70358;56.958;24.126;2023-06-14T06:43:26;9.77;;;3.03;;
80908;SDS011;70358;56.958;24.126;2023-06-14T06:45:52;7.38;;;2.58;;
80908;SDS011;70358;56.958;24.126;2023-06-14T06:48:17;5.20;;;2.50;;
80908;SDS011;70358;56.958;24.126;2023-06-14T06:50:43;7.72;;;2.53;;
80908;SDS011;70358;56.958;24.126;2023-06-14T06:53:09;4.10;;;2.30;;
80908;SDS011;70358;56.958;24.126;2023-06-14T06:55:34;6.35;;;2.70;;
80908;SDS011;70358;56.958;24.126;2023-06-14T06:58:00;6.50;;;2.20;;
80908;SDS011;70358;56.958;24.126;2023-06-14T07:00:26;7.22;;;2.75;;
80908;SDS011;70358;56.958;24.126;2023-06-14T07:02:52;18.30;;;2.65;;
80908;SDS011;70358;56.958;24.126;2023-06-14T07:05:19;7.07;;;3.10;;
80908;SDS011;70358;56.958;24.126;2023-06-14T07:07:45;6.68;;;2.70;;
80908;SDS011;70358;56.958;24.126;2023-06-14T07:10:10;12.13;;;2.88;;
80908;SDS011;70358;56.958;24.126;2023-06-14T07:12:36;9.07;;;2.60;;
80908;SDS011;70358;56.958;24.126;2023-06-14T07:15:04;11.98;;;2.65;;
80908;SDS011;70358;56.958;24.126;2023-06-14T07:17:33;12.18;;;2.92;;
80908;SDS011;70358;56.958;24.126;2023-06-14T07:19:59;10.52;;;2.65;;
80908;SDS011;70358;56.958;24.126;2023-06-14T07:22:25;11.27;;;3.13;;
80908;SDS011;70358;56.958;24.126;2023-06-14T07:24:51;8.35;;;2.80;;
80908;SDS011;70358;56.958;24.126;2023-06-14T07:27:16;12.32;;;2.88;;
80908;SDS011;70358;56.958;24.126;2023-06-14T07:29:42;11.18;;;3.08;;
80908;SDS011;70358;56.958;24.126;2023-06-14T07:32:07;11.18;;;3.13;;
80908;SDS011;70358;56.958;24.126;2023-06-14T07:34:33;7.57;;;3.22;;
80908;SDS011;70358;56.958;24.126;2023-06-14T07:36:58;8.15;;;3.20;;
80908;SDS011;70358;56.958;24.126;2023-06-14T07:39:24;10.95;;;3.03;;
80908;SDS011;70358;56.958;24.126;2023-06-14T07:41:49;7.55;;;2.80;;
80908;SDS011;70358;56.958;24.126;2023-06-14T07:44:15;6.43;;;2.55;;
80908;SDS011;70358;56.958;24.126;2023-06-14T07:46:41;7.80;;;2.80;;
80908;SDS011;70358;56.958;24.126;2023-06-14T07:49:06;12.02;;;2.60;;
80908;SDS011;70358;56.958;24.126;2023-06-14T07:51:32;17.13;;;3.15;;
80908;SDS011;70358;56.958;24.126;2023-06-14T07:53:59;12.27;;;2.95;;
80908;SDS011;70358;56.958;24.126;2023-06-14T07:56:26;8.20;;;2.60;;
80908;SDS011;70358;56.958;24.126;2023-06-14T07:58:51;10.02;;;2.58;;
80908;SDS011;70358;56.958;24.126;2023-06-14T08:01:17;6.45;;;2.60;;
80908;SDS011;70358;56.958;24.126;2023-06-14T08:03:42;7.25;;;2.53;;
80908;SDS011;70358;56.958;24.126;2023-06-14T08:06:08;9.68;;;2.90;;
80908;SDS011;70358;56.958;24.126;2023-06-14T08:08:33;13.20;;;3.47;;
80908;SDS011;70358;56.958;24.126;2023-06-14T08:10:59;9.95;;;2.90;;
80908;SDS011;70358;56.958;24.126;2023-06-14T08:13:24;10.57;;;2.45;;
80908;SDS011;70358;56.958;24.126;2023-06-14T08:15:50;5.50;;;2.50;;
80908;SDS011;70358;56.958;24.126;2023-06-14T08:18:16;5.88;;;2.67;;
80908;SDS011;70358;56.958;24.126;2023-06-14T08:20:41;9.82;;;2.70;;
80908;SDS011;70358;56.958;24.126;2023-06-14T08:23:06;7.00;;;2.88;;
80908;SDS011;70358;56.958;24.126;2023-06-14T08:25:39;6.45;;;2.90;;
80908;SDS011;70358;56.958;24.126;2023-06-14T08:28:04;10.80;;;2.85;;
80908;SDS011;70358;56.958;24.126;2023-06-14T08:30:30;13.20;;;2.90;;
80908;SDS011;70358;56.958;24.126;2023-06-14T08:32:55;8.02;;;3.13;;
80908;SDS011;70358;56.958;24.126;2023-06-14T08:35:22;13.05;;;3.22;;
80908;SDS011;70358;56.958;24.126;2023-06-14T08:37:47;11.20;;;3.38;;
80908;SDS011;70358;56.958;24.126;2023-06-14T08:40:20;7.50;;;3.00;;
80908;SDS011;70358;56.958;24.126;2023-06-14T08:42:47;6.50;;;2.70;;
80908;SDS011;70358;56.958;24.126;2023-06-14T08:45:18;5.47;;;2.95;;
80908;SDS011;70358;56.958;24.126;2023-06-14T08:47:45;8.60;;;2.42;;
80908;SDS011;70358;56.958;24.126;2023-06-14T08:50:11;8.75;;;2.70;;
80908;SDS011;70358;56.958;24.126;2023-06-14T08:52:37;8.80;;;2.42;;
80908;SDS011;70358;56.958;24.126;2023-06-14T08:55:14;5.15;;;2.50;;
80908;SDS011;70358;56.958;24.126;2023-06-14T08:57:42;6.65;;;2.60;;
80908;SDS011;70358;56.958;24.126;2023-06-14T09:00:08;7.88;;;2.55;;
80908;SDS011;70358;56.958;24.126;2023-06-14T09:02:38;5.03;;;2.63;;
80908;SDS011;70358;56.958;24.126;2023-06-14T09:05:08;4.63;;;2.50;;
80908;SDS011;70358;56.958;24.126;2023-06-14T09:07:41;5.70;;;2.95;;
80908;SDS011;70358;56.958;24.126;2023-06-14T09:10:13;5.18;;;2.97;;
80908;SDS011;70358;56.958;24.126;2023-06-14T09:12:40;5.78;;;2.60;;
80908;SDS011;70358;56.958;24.126;2023-06-14T09:15:05;6.38;;;2.78;;
80908;SDS011;70358;56.958;24.126;2023-06-14T09:17:33;6.85;;;2.63;;
80908;SDS011;70358;56.958;24.126;2023-06-14T09:20:03;6.07;;;2.60;;
80908;SDS011;70358;56.958;24.126;2023-06-14T09:22:35;7.38;;;2.70;;
80908;SDS011;70358;56.958;24.126;2023-06-14T09:25:01;8.25;;;3.28;;
80908;SDS011;70358;56.958;24.126;2023-06-14T09:27:27;7.90;;;2.65;;
80908;SDS011;70358;56.958;24.126;2023-06-14T09:29:53;5.63;;;2.70;;
80908;SDS011;70358;56.958;24.126;2023-06-14T09:32:18;7.65;;;2.58;;
80908;SDS011;70358;56.958;24.126;2023-06-14T09:34:45;11.75;;;2.92;;
80908;SDS011;70358;56.958;24.126;2023-06-14T09:37:13;7.57;;;2.58;;
80908;SDS011;70358;56.958;24.126;2023-06-14T09:39:51;8.02;;;3.00;;
80908;SDS011;70358;56.958;24.126;2023-06-14T09:42:18;8.05;;;2.92;;
80908;SDS011;70358;56.958;24.126;2023-06-14T09:44:47;8.88;;;3.20;;
80908;SDS011;70358;56.958;24.126;2023-06-14T09:47:14;8.38;;;2.88;;
80908;SDS011;70358;56.958;24.126;2023-06-14T09:52:06;7.03;;;2.57;;
80908;SDS011;70358;56.958;24.126;2023-06-14T09:54:32;6.60;;;3.17;;
80908;SDS011;70358;56.958;24.126;2023-06-14T09:59:25;3.97;;;2.70;;
80908;SDS011;70358;56.958;24.126;2023-06-14T10:01:54;7.00;;;2.97;;
80908;SDS011;70358;56.958;24.126;2023-06-14T10:04:23;7.97;;;3.03;;
80908;SDS011;70358;56.958;24.126;2023-06-14T10:06:49;6.75;;;2.90;;
80908;SDS011;70358;56.958;24.126;2023-06-14T10:09:15;6.40;;;3.20;;
80908;SDS011;70358;56.958;24.126;2023-06-14T10:11:41;13.13;;;3.80;;
80908;SDS011;70358;56.958;24.126;2023-06-14T10:14:09;6.82;;;3.20;;
80908;SDS011;70358;56.958;24.126;2023-06-14T10:19:15;7.47;;;2.83;;
80908;SDS011;70358;56.958;24.126;2023-06-14T10:24:25;9.45;;;3.40;;
80908;SDS011;70358;56.958;24.126;2023-06-14T10:27:04;7.30;;;3.28;;
80908;SDS011;70358;56.958;24.126;2023-06-14T10:29:35;8.70;;;3.30;;
80908;SDS011;70358;56.958;24.126;2023-06-14T10:32:26;6.28;;;3.42;;
80908;SDS011;70358;56.958;24.126;2023-06-14T10:34:57;6.72;;;2.80;;
80908;SDS011;70358;56.958;24.126;2023-06-14T10:37:24;8.23;;;2.92;;
80908;SDS011;70358;56.958;24.126;2023-06-14T10:39:50;7.15;;;3.13;;
80908;SDS011;70358;56.958;24.126;2023-06-14T10:42:16;8.68;;;3.28;;
80908;SDS011;70358;56.958;24.126;2023-06-14T10:47:31;4.50;;;3.13;;
80908;SDS011;70358;56.958;24.126;2023-06-14T10:52:32;6.28;;;3.30;;
80908;SDS011;70358;56.958;24.126;2023-06-14T10:55:10;8.60;;;3.60;;
80908;SDS011;70358;56.958;24.126;2023-06-14T10:57:46;5.43;;;3.13;;
80908;SDS011;70358;56.958;24.126;2023-06-14T11:00:17;6.68;;;3.00;;
80908;SDS011;70358;56.958;24.126;2023-06-14T11:11:37;6.38;;;3.00;;
80908;SDS011;70358;56.958;24.126;2023-06-14T11:14:03;7.32;;;3.05;;
80908;SDS011;70358;56.958;24.126;2023-06-14T11:16:35;7.35;;;3.10;;
80908;SDS011;70358;56.958;24.126;2023-06-14T11:19:05;11.40;;;3.28;;
80908;SDS011;70358;56.958;24.126;2023-06-14T11:21:32;10.43;;;3.13;;
80908;SDS011;70358;56.958;24.126;2023-06-14T11:23:58;8.32;;;3.55;;
80908;SDS011;70358;56.958;24.126;2023-06-14T11:26:24;6.32;;;3.15;;
80908;SDS011;70358;56.958;24.126;2023-06-14T11:29:00;8.75;;;3.05;;
80908;SDS011;70358;56.958;24.126;2023-06-14T11:31:26;9.55;;;3.33;;
80908;SDS011;70358;56.958;24.126;2023-06-14T11:33:56;7.57;;;3.30;;
80908;SDS011;70358;56.958;24.126;2023-06-14T11:36:22;14.85;;;3.67;;
80908;SDS011;70358;56.958;24.126;2023-06-14T11:38:48;13.48;;;3.90;;
80908;SDS011;70358;56.958;24.126;2023-06-14T11:41:14;10.02;;;3.30;;
80908;SDS011;70358;56.958;24.126;2023-06-14T11:43:39;8.98;;;3.70;;
80908;SDS011;70358;56.958;24.126;2023-06-14T11:46:11;10.05;;;3.00;;
80908;SDS011;70358;56.958;24.126;2023-06-14T11:48:40;5.68;;;2.78;;
80908;SDS011;70358;56.958;24.126;2023-06-14T11:51:08;13.40;;;3.45;;
80908;SDS011;70358;56.958;24.126;2023-06-14T11:53:34;5.88;;;2.78;;
80908;SDS011;70358;56.958;24.126;2023-06-14T11:56:00;8.68;;;2.58;;
80908;SDS011;70358;56.958;24.126;2023-06-14T11:58:26;10.48;;;2.97;;
80908;SDS011;70358;56.958;24.126;2023-06-14T12:00:55;5.72;;;2.85;;
80908;SDS011;70358;56.958;24.126;2023-06-14T12:03:24;7.32;;;2.75;;
80908;SDS011;70358;56.958;24.126;2023-06-14T12:05:50;10.52;;;2.58;;
80908;SDS011;70358;56.958;24.126;2023-06-14T12:08:32;6.15;;;2.67;;
80908;SDS011;70358;56.958;24.126;2023-06-14T12:11:03;7.43;;;3.40;;
80908;SDS011;70358;56.958;24.126;2023-06-14T12:13:29;11.38;;;3.28;;
80908;SDS011;70358;56.958;24.126;2023-06-14T12:15:58;20.05;;;3.50;;
80908;SDS011;70358;56.958;24.126;2023-06-14T12:18:42;15.05;;;3.83;;
80908;SDS011;70358;56.958;24.126;2023-06-14T12:21:09;9.27;;;2.92;;
80908;SDS011;70358;56.958;24.126;2023-06-14T12:23:45;13.52;;;3.05;;
80908;SDS011;70358;56.958;24.126;2023-06-14T12:26:19;6.97;;;2.95;;
80908;SDS011;70358;56.958;24.126;2023-06-14T12:28:45;6.82;;;2.88;;
80908;SDS011;70358;56.958;24.126;2023-06-14T12:31:12;7.22;;;3.40;;
80908;SDS011;70358;56.958;24.126;2023-06-14T12:33:38;5.63;;;2.72;;
80908;SDS011;70358;56.958;24.126;2023-06-14T12:36:04;10.02;;;3.25;;
80908;SDS011;70358;56.958;24.126;2023-06-14T12:38:31;5.45;;;2.38;;
80908;SDS011;70358;56.958;24.126;2023-06-14T12:40:57;7.38;;;2.97;;
80908;SDS011;70358;56.958;24.126;2023-06-14T12:43:22;8.65;;;3.15;;
80908;SDS011;70358;56.958;24.126;2023-06-14T12:45:48;6.93;;;2.83;;
80908;SDS011;70358;56.958;24.126;2023-06-14T12:48:13;6.25;;;2.70;;
80908;SDS011;70358;56.958;24.126;2023-06-14T12:53:06;6.13;;;2.92;;
80908;SDS011;70358;56.958;24.126;2023-06-14T12:55:32;6.15;;;3.00;;
80908;SDS011;70358;56.958;24.126;2023-06-14T12:57:58;11.07;;;3.10;;
80908;SDS011;70358;56.958;24.126;2023-06-14T13:00:24;7.88;;;3.28;;
80908;SDS011;70358;56.958;24.126;2023-06-14T13:02:51;6.32;;;3.10;;
80908;SDS011;70358;56.958;24.126;2023-06-14T13:05:17;8.45;;;3.25;;
80908;SDS011;70358;56.958;24.126;2023-06-14T13:07:43;8.63;;;3.05;;
80908;SDS011;70358;56.958;24.126;2023-06-14T13:10:09;5.82;;;2.80;;
80908;SDS011;70358;56.958;24.126;2023-06-14T13:12:35;7.20;;;3.05;;
80908;SDS011;70358;56.958;24.126;2023-06-14T13:15:01;5.82;;;2.83;;
80908;SDS011;70358;56.958;24.126;2023-06-14T13:17:26;10.27;;;3.28;;
80908;SDS011;70358;56.958;24.126;2023-06-14T13:19:52;5.88;;;3.00;;
80908;SDS011;70358;56.958;24.126;2023-06-14T13:22:17;9.70;;;2.95;;
80908;SDS011;70358;56.958;24.126;2023-06-14T13:24:43;7.25;;;3.13;;
80908;SDS011;70358;56.958;24.126;2023-06-14T13:27:08;5.70;;;2.53;;
80908;SDS011;70358;56.958;24.126;2023-06-14T13:29:33;5.18;;;2.70;;
80908;SDS011;70358;56.958;24.126;2023-06-14T13:32:01;6.93;;;2.78;;
80908;SDS011;70358;56.958;24.126;2023-06-14T13:34:27;5.57;;;2.90;;
80908;SDS011;70358;56.958;24.126;2023-06-14T13:36:52;5.40;;;2.92;;
80908;SDS011;70358;56.958;24.126;2023-06-14T13:39:18;6.32;;;2.45;;
80908;SDS011;70358;56.958;24.126;2023-06-14T13:41:44;8.48;;;3.25;;
80908;SDS011;70358;56.958;24.126;2023-06-14T13:44:10;10.23;;;3.03;;
80908;SDS011;70358;56.958;24.126;2023-06-14T13:46:40;9.98;;;2.72;;
80908;SDS011;70358;56.958;24.126;2023-06-14T13:49:07;7.47;;;2.83;;
80908;SDS011;70358;56.958;24.126;2023-06-14T13:51:33;5.47;;;2.92;;
80908;SDS011;70358;56.958;24.126;2023-06-14T13:54:00;7.30;;;2.88;;
80908;SDS011;70358;56.958;24.126;2023-06-14T13:56:26;5.38;;;2.97;;
80908;SDS011;70358;56.958;24.126;2023-06-14T13:58:51;7.05;;;2.83;;
80908;SDS011;70358;56.958;24.126;2023-06-14T14:01:17;4.75;;;2.63;;
80908;SDS011;70358;56.958;24.126;2023-06-14T14:03:44;6.72;;;2.97;;
80908;SDS011;70358;56.958;24.126;2023-06-14T14:06:11;9.00;;;3.00;;
80908;SDS011;70358;56.958;24.126;2023-06-14T14:08:38;7.88;;;3.30;;
80908;SDS011;70358;56.958;24.126;2023-06-14T14:11:04;7.78;;;2.80;;
80908;SDS011;70358;56.958;24.126;2023-06-14T14:13:30;8.40;;;2.88;;
80908;SDS011;70358;56.958;24.126;2023-06-14T14:15:56;6.18;;;2.72;;
80908;SDS011;70358;56.958;24.126;2023-06-14T14:18:21;5.27;;;2.70;;
80908;SDS011;70358;56.958;24.126;2023-06-14T14:20:47;5.47;;;2.58;;
80908;SDS011;70358;56.958;24.126;2023-06-14T14:23:13;6.80;;;2.80;;
80908;SDS011;70358;56.958;24.126;2023-06-14T14:25:39;6.32;;;2.67;;
80908;SDS011;70358;56.958;24.126;2023-06-14T14:28:04;4.95;;;2.58;;
80908;SDS011;70358;56.958;24.126;2023-06-14T14:30:29;9.98;;;3.10;;
80908;SDS011;70358;56.958;24.126;2023-06-14T14:32:55;5.22;;;2.75;;
80908;SDS011;70358;56.958;24.126;2023-06-14T14:35:20;5.97;;;2.63;;
80908;SDS011;70358;56.958;24.126;2023-06-14T14:40:12;5.30;;;2.80;;
80908;SDS011;70358;56.958;24.126;2023-06-14T14:42:38;3.90;;;2.63;;
80908;SDS011;70358;56.958;24.126;2023-06-14T14:45:03;7.53;;;3.47;;
80908;SDS011;70358;56.958;24.126;2023-06-14T14:47:29;8.02;;;3.00;;
80908;SDS011;70358;56.958;24.126;2023-06-14T14:49:55;3.75;;;2.47;;
80908;SDS011;70358;56.958;24.126;2023-06-14T14:52:20;8.97;;;2.70;;
80908;SDS011;70358;56.958;24.126;2023-06-14T14:54:45;7.93;;;2.40;;
80908;SDS011;70358;56.958;24.126;2023-06-14T14:57:11;6.90;;;2.88;;
80908;SDS011;70358;56.958;24.126;2023-06-14T14:59:36;6.22;;;2.63;;
80908;SDS011;70358;56.958;24.126;2023-06-14T15:02:02;6.00;;;2.72;;
80908;SDS011;70358;56.958;24.126;2023-06-14T15:04:27;7.90;;;2.88;;
80908;SDS011;70358;56.958;24.126;2023-06-14T15:06:53;7.00;;;3.33;;
80908;SDS011;70358;56.958;24.126;2023-06-14T15:09:18;7.47;;;3.13;;
80908;SDS011;70358;56.958;24.126;2023-06-14T15:11:43;6.80;;;2.45;;
80908;SDS011;70358;56.958;24.126;2023-06-14T15:14:09;4.63;;;2.55;;